.
WxDataArchive / Data Records for 2010-11-14
2010-11-13 November 2010 2010-11-15

Data Records for Sunday, 14 November 2010

Time	Temp	Chill	HIndex	Humid	Dewpt	 Wind 	HiWind	WindDir	Rain 	Barom 
-----	----	-----	------	-----	-----	------	------	-------	-----	----- 
00:00	43.3	43.3	43.3	92	41.1	2	4	248	0.00	29.926 
00:05	43.3	43.3	43.3	92	41.1	2	4	248	0.00	29.926 
00:10	43.5	43.5	43.5	92	41.3	1	5	270	0.00	29.926 
00:15	43.2	43.2	43.2	92	41.0	3	7	248	0.00	29.929 
00:20	42.8	40.6	42.8	91	40.4	4	9	270	0.00	29.929 
00:25	42.2	42.2	42.2	90	39.5	3	7	270	0.00	29.929 
00:30	41.8	41.8	41.8	88	38.5	3	7	270	0.00	29.933 
00:35	41.6	41.6	41.6	87	38.0	3	7	270	0.00	29.933 
00:40	41.5	39.1	41.5	86	37.6	4	10	270	0.00	29.933 
00:45	41.6	41.6	41.6	85	37.4	2	5	270	0.00	29.932 
00:50	41.5	41.5	41.5	84	37.0	3	6	248	0.00	29.932 
00:55	41.5	41.5	41.5	84	37.0	3	6	248	0.00	29.932 
01:00	41.5	41.5	41.5	84	37.0	3	5	270	0.00	29.930 
01:05	41.5	41.5	41.5	84	37.0	3	6	248	0.00	29.930 
01:10	41.5	41.5	41.5	84	37.0	2	5	270	0.00	29.930 
01:15	41.5	41.5	41.5	84	37.0	3	6	270	0.00	29.923 
01:20	41.5	41.5	41.5	84	37.0	1	4	292	0.00	29.923 
01:25	41.5	41.5	41.5	84	37.0	2	6	248	0.00	29.923 
01:30	41.5	41.5	41.5	84	37.0	2	7	248	0.00	29.933 
01:35	41.3	41.3	41.3	84	36.8	2	4	248	0.00	29.933 
01:40	41.5	41.5	41.5	84	37.0	1	3	248	0.00	29.933 
01:45	41.3	41.3	41.3	83	36.5	2	4	248	0.00	29.928 
01:50	41.3	41.3	41.3	84	36.8	2	5	270	0.00	29.928 
01:55	41.3	41.3	41.3	83	36.5	3	6	248	0.00	29.928 
02:00	41.2	41.2	41.2	82	36.1	2	4	248	0.00	29.929 
02:05	41.2	41.2	41.2	82	36.1	3	6	248	0.00	29.929 
02:10	41.2	41.2	41.2	81	35.8	3	8	248	0.00	29.929 
02:15	41.1	41.1	41.1	80	35.4	3	7	248	0.00	29.933 
02:20	41.1	41.1	41.1	80	35.4	3	6	270	0.00	29.933 
02:25	41.1	41.1	41.1	80	35.4	1	6	248	0.00	29.933 
02:30	41.1	41.1	41.1	80	35.4	2	5	248	0.00	29.922 
02:35	41.1	41.1	41.1	80	35.4	1	4	248	0.00	29.922 
02:40	40.9	40.9	40.9	80	35.2	2	7	248	0.00	29.922 
02:45	40.9	40.9	40.9	80	35.2	1	3	248	0.00	29.922 
02:50	40.9	40.9	40.9	81	35.5	1	3	225	0.00	29.922 
02:55	40.9	40.9	40.9	80	35.2	2	5	248	0.00	29.922 
03:00	40.8	40.8	40.8	80	35.1	3	9	248	0.00	29.920 
03:05	40.9	40.9	40.9	79	34.9	1	4	248	0.00	29.920 
03:10	40.8	40.8	40.8	79	34.8	2	6	270	0.00	29.920 
03:15	40.8	40.8	40.8	79	34.8	2	6	225	0.00	29.921 
03:20	40.8	40.8	40.8	79	34.8	2	9	225	0.00	29.921 
03:25	40.8	40.8	40.8	79	34.8	2	5	248	0.00	29.921 
03:30	40.8	40.8	40.8	79	34.8	2	7	248	0.00	29.923 
03:35	40.8	40.8	40.8	79	34.8	3	7	248	0.00	29.923 
03:40	40.8	40.8	40.8	79	34.8	2	4	248	0.00	29.923 
03:45	40.6	38.0	40.6	79	34.6	4	12	248	0.00	29.924 
03:50	40.5	37.9	40.5	78	34.2	4	11	248	0.00	29.924 
03:55	40.5	40.5	40.5	78	34.2	3	6	270	0.00	29.924 
04:00	40.2	40.2	40.2	77	33.6	3	9	270	0.00	29.923 
04:05	40.1	37.4	40.1	76	33.2	4	10	248	0.00	29.923 
04:10	39.9	37.2	39.9	75	32.6	4	8	270	0.00	29.923 
04:15	39.9	39.9	39.9	76	33.0	3	9	270	0.00	29.924 
04:20	39.9	37.2	39.9	76	33.0	4	7	248	0.00	29.924 
04:25	39.9	39.9	39.9	76	33.0	2	7	248	0.00	29.924 
04:30	39.9	39.9	39.9	77	33.3	2	6	248	0.00	29.924 
04:35	39.9	39.9	39.9	77	33.3	3	8	248	0.00	29.924 
04:40	39.8	39.8	39.8	77	33.2	1	4	248	0.00	29.924 
04:45	39.8	39.8	39.8	77	33.2	1	6	225	0.00	29.921 
04:50	39.8	39.8	39.8	77	33.2	2	5	248	0.00	29.921 
04:55	39.6	39.6	39.6	77	33.0	2	7	248	0.00	29.921 
05:00	39.6	39.6	39.6	77	33.0	2	6	248	0.00	29.918 
05:05	39.6	39.6	39.6	77	33.0	1	4	248	0.00	29.918 
05:10	39.6	39.6	39.6	77	33.0	2	6	248	0.00	29.918 
05:15	39.6	39.6	39.6	77	33.0	3	9	248	0.00	29.928 
05:20	39.6	39.6	39.6	76	32.7	3	7	248	0.00	29.928 
05:25	39.6	39.6	39.6	75	32.3	3	10	248	0.00	29.928 
05:30	39.5	39.5	39.5	74	31.9	2	7	248	0.00	29.928 
05:35	39.5	39.5	39.5	73	31.6	3	7	248	0.00	29.928 
05:40	39.5	39.5	39.5	73	31.6	2	5	248	0.00	29.928 
05:45	39.5	39.5	39.5	73	31.6	2	6	248	0.00	29.929 
05:50	39.5	39.5	39.5	73	31.6	2	6	248	0.00	29.929 
05:55	39.5	36.7	39.5	73	31.6	4	10	248	0.00	29.929 
06:00	39.5	36.7	39.5	73	31.6	4	9	248	0.00	29.929 
06:05	39.5	39.5	39.5	73	31.6	3	5	225	0.00	29.929 
06:10	39.5	36.7	39.5	73	31.6	4	7	248	0.00	29.929 
06:15	39.5	36.7	39.5	72	31.2	4	10	248	0.00	29.931 
06:20	39.3	36.5	39.3	72	31.0	4	11	248	0.00	29.931 
06:25	39.3	35.7	39.3	71	30.7	5	11	248	0.00	29.931 
06:30	39.3	39.3	39.3	71	30.7	3	10	270	0.00	29.933 
06:35	39.3	36.5	39.3	71	30.7	4	11	248	0.00	29.933 
06:40	39.3	36.5	39.3	71	30.7	4	9	248	0.00	29.933 
06:45	39.3	39.3	39.3	73	31.4	2	5	248	0.00	29.937 
06:50	39.2	39.2	39.2	73	31.3	3	7	248	0.00	29.937 
06:55	39.1	39.1	39.1	74	31.5	2	4	248	0.00	29.937 
07:00	39.1	39.1	39.1	74	31.5	2	6	248	0.00	29.944 
07:05	39.1	39.1	39.1	74	31.5	2	7	248	0.00	29.944 
07:10	39.1	39.1	39.1	73	31.2	3	12	248	0.00	29.944 
07:15	39.1	39.1	39.1	73	31.2	2	5	248	0.00	29.945 
07:20	39.1	39.1	39.1	74	31.5	2	6	248	0.00	29.945 
07:25	39.1	39.1	39.1	74	31.5	2	6	225	0.00	29.945 
07:30	39.1	39.1	39.1	74	31.5	2	5	248	0.00	29.948 
07:35	39.1	39.1	39.1	74	31.5	1	5	248	0.00	29.948 
07:40	39.1	39.1	39.1	75	31.9	1	4	248	0.00	29.948 
07:45	38.9	38.9	38.9	74	31.3	3	9	248	0.00	29.950 
07:50	38.8	35.9	38.8	73	30.9	4	9	270	0.00	29.950 
07:55	38.8	35.1	38.8	73	30.9	5	13	248	0.00	29.950 
08:00	38.6	38.6	38.6	73	30.7	3	9	248	0.00	29.953 
08:05	38.6	38.6	38.6	73	30.7	2	6	248	0.00	29.953 
08:10	38.6	38.6	38.6	73	30.7	2	7	292	0.00	29.953 
08:15	38.6	38.6	38.6	73	30.7	3	7	248	0.00	29.956 
08:20	38.6	35.7	38.6	73	30.7	4	10	248	0.00	29.956 
08:25	38.6	38.6	38.6	73	30.7	3	6	248	0.00	29.956 
08:30	38.6	38.6	38.6	73	30.7	2	6	248	0.00	29.961 
08:35	38.6	38.6	38.6	73	30.7	3	7	248	0.00	29.961 
08:40	38.6	35.7	38.6	73	30.7	4	10	248	0.00	29.961 
08:45	38.8	38.8	38.8	72	30.6	3	9	248	0.00	29.963 
08:50	38.8	38.8	38.8	73	30.9	2	7	248	0.00	29.963 
08:55	38.8	38.8	38.8	72	30.6	3	9	248	0.00	29.963 
09:00	38.8	38.8	38.8	72	30.6	2	6	248	0.00	29.964 
09:05	38.8	38.8	38.8	73	30.9	2	4	248	0.00	29.964 
09:10	38.8	38.8	38.8	72	30.6	2	7	270	0.00	29.964 
09:15	38.8	38.8	38.8	72	30.6	3	6	248	0.00	29.969 
09:20	38.8	38.8	38.8	72	30.6	2	5	248	0.00	29.969 
09:25	38.8	38.8	38.8	72	30.6	2	6	248	0.00	29.969 
09:30	38.8	38.8	38.8	71	30.2	3	7	248	0.00	29.969 
09:35	38.8	38.8	38.8	72	30.6	2	5	248	0.00	29.969 
09:40	38.6	38.6	38.6	71	30.0	3	6	248	0.00	29.969 
09:45	38.6	38.6	38.6	71	30.0	3	6	248	0.00	29.970 
09:50	38.6	38.6	38.6	72	30.4	1	5	270	0.00	29.970 
09:55	38.6	38.6	38.6	72	30.4	2	7	248	0.00	29.970 
10:00	38.6	38.6	38.6	72	30.4	3	7	248	0.00	29.966 
10:05	38.8	38.8	38.8	72	30.6	2	6	248	0.00	29.966 
10:10	38.8	38.8	38.8	72	30.6	3	7	248	0.00	29.966 
10:15	38.8	38.8	38.8	72	30.6	3	5	248	0.00	29.973 
10:20	38.8	38.8	38.8	71	30.2	3	7	248	0.00	29.973 
10:25	38.8	38.8	38.8	71	30.2	2	6	225	0.00	29.973 
10:30	38.9	38.9	38.9	70	30.0	2	7	248	0.00	29.972 
10:35	38.9	38.9	38.9	70	30.0	1	7	248	0.00	29.972 
10:40	39.1	39.1	39.1	69	29.8	3	10	248	0.00	29.972 
10:45	39.1	39.1	39.1	69	29.8	3	9	225	0.00	29.971 
10:50	39.2	39.2	39.2	68	29.5	3	9	225	0.00	29.971 
10:55	39.2	39.2	39.2	68	29.5	2	5	270	0.00	29.971 
11:00	39.3	36.5	39.3	67	29.3	4	7	248	0.00	29.974 
11:05	39.3	39.3	39.3	66	28.9	3	8	270	0.00	29.974 
11:10	39.3	36.5	39.3	65	28.5	4	10	270	0.00	29.974 
11:15	39.3	36.5	39.3	65	28.5	4	12	270	0.00	29.975 
11:20	39.5	39.5	39.5	65	28.7	3	7	248	0.00	29.975 
11:25	39.5	39.5	39.5	65	28.7	3	8	248	0.00	29.975 
11:30	39.6	39.6	39.6	64	28.4	3	9	248	0.00	29.971 
11:35	39.6	36.9	39.6	65	28.8	4	10	270	0.00	29.971 
11:40	39.8	39.8	39.8	65	29.0	3	9	248	0.00	29.971 
11:45	39.9	39.9	39.9	64	28.7	3	9	248	0.00	29.966 
11:50	39.9	37.2	39.9	65	29.1	4	10	248	0.00	29.966 
11:55	39.9	39.9	39.9	65	29.1	3	6	225	0.00	29.966 
12:00	40.1	40.1	40.1	65	29.3	3	6	225	0.00	29.961 
12:05	40.2	40.2	40.2	65	29.4	2	7	225	0.00	29.961 
12:10	40.2	40.2	40.2	65	29.4	2	7	248	0.00	29.961 
12:15	40.3	40.3	40.3	65	29.5	3	7	248	0.00	29.957 
12:20	40.5	40.5	40.5	65	29.7	3	7	248	0.00	29.957 
12:25	40.6	40.6	40.6	65	29.8	2	4	248	0.00	29.957 
12:30	40.8	40.8	40.8	65	30.0	3	7	248	0.00	29.949 
12:35	40.9	40.9	40.9	64	29.7	3	6	270	0.00	29.949 
12:40	41.1	41.1	41.1	63	29.5	3	9	248	0.00	29.949 
12:45	41.6	38.4	41.6	60	28.8	5	12	270	0.00	29.945 
12:50	41.8	38.6	41.8	59	28.5	5	10	248	0.00	29.945 
12:55	41.9	39.5	41.9	59	28.6	4	12	270	0.00	29.945 
13:00	42.2	42.2	42.2	58	28.5	3	10	225	0.00	29.941 
13:05	42.6	42.6	42.6	59	29.3	3	7	248	0.00	29.941 
13:10	42.9	40.7	42.9	57	28.7	4	10	270	0.00	29.941 
13:15	42.8	40.6	42.8	57	28.6	4	10	270	0.00	29.943 
13:20	42.8	40.6	42.8	58	29.1	4	10	248	0.00	29.943 
13:25	42.8	40.6	42.8	58	29.1	4	15	248	0.00	29.943 
13:30	42.8	40.6	42.8	58	29.1	4	15	270	0.00	29.941 
13:35	42.6	39.5	42.6	58	28.9	5	12	270	0.00	29.941 
13:40	43.1	43.1	43.1	58	29.3	3	10	248	0.00	29.941 
13:45	43.6	41.5	43.6	57	29.4	4	10	248	0.00	29.939 
13:50	43.6	41.5	43.6	57	29.4	4	10	248	0.00	29.939 
13:55	43.9	43.9	43.9	56	29.2	3	7	248	0.00	29.939 
14:00	44.3	42.3	44.3	55	29.2	4	10	248	0.00	29.936 
14:05	44.5	42.5	44.5	54	28.9	4	10	248	0.00	29.936 
14:10	44.5	41.8	44.5	54	28.9	5	11	248	0.00	29.936 
14:15	44.6	42.6	44.6	54	29.0	4	8	248	0.00	29.939 
14:20	44.8	42.9	44.8	54	29.2	4	9	270	0.00	29.939 
14:25	44.9	44.9	44.9	54	29.3	3	10	248	0.00	29.939 
14:30	44.9	43.0	44.9	53	28.8	4	10	248	0.00	29.939 
14:35	45.1	43.2	45.1	53	29.0	4	11	248	0.00	29.939 
14:40	45.2	43.3	45.2	53	29.1	4	10	270	0.00	29.939 
14:45	45.2	43.3	45.2	52	28.6	4	10	270	0.00	29.938 
14:50	45.4	43.6	45.4	52	28.8	4	11	248	0.00	29.938 
14:55	45.5	43.7	45.5	52	28.9	4	9	270	0.00	29.938 
15:00	45.7	43.9	45.7	51	28.6	4	10	248	0.00	29.934 
15:05	46.0	46.0	46.0	51	28.9	3	7	270	0.00	29.934 
15:10	46.2	44.5	46.2	50	28.6	4	9	270	0.00	29.934 
15:15	46.4	46.4	46.4	50	28.8	3	7	270	0.00	29.935 
15:20	46.7	46.7	46.7	50	29.1	3	6	248	0.00	29.935 
15:25	46.7	46.7	46.7	49	28.6	3	6	248	0.00	29.935 
15:30	46.8	46.8	46.8	49	28.7	2	9	248	0.00	29.938 
15:35	46.5	44.8	46.5	50	28.9	4	11	270	0.00	29.938 
15:40	46.4	44.7	46.4	49	28.3	4	10	248	0.00	29.938 
15:45	46.0	44.2	46.0	50	28.4	4	7	270	0.00	29.939 
15:50	46.0	46.0	46.0	50	28.4	3	10	292	0.00	29.939 
15:55	46.0	46.0	46.0	51	28.9	3	7	248	0.00	29.939 
16:00	46.0	46.0	46.0	51	28.9	3	6	248	0.00	29.940 
16:05	46.0	46.0	46.0	51	28.9	3	7	248	0.00	29.940 
16:10	45.8	43.3	45.8	49	27.7	5	10	270	0.00	29.940 
16:15	45.7	43.9	45.7	51	28.6	4	11	270	0.00	29.942 
16:20	45.5	45.5	45.5	51	28.4	3	10	270	0.00	29.942 
16:25	45.4	42.8	45.4	51	28.3	5	12	248	0.00	29.942 
16:30	45.4	43.6	45.4	51	28.3	4	11	248	0.00	29.947 
16:35	45.2	43.3	45.2	51	28.2	4	9	270	0.00	29.947 
16:40	45.2	45.2	45.2	52	28.6	3	10	248	0.00	29.947 
16:45	45.1	45.1	45.1	52	28.5	3	10	248	0.00	29.945 
16:50	44.9	43.0	44.9	52	28.4	4	9	248	0.00	29.945 
16:55	44.8	44.8	44.8	52	28.3	3	6	270	0.00	29.945 
17:00	44.5	44.5	44.5	53	28.4	2	11	248	0.00	29.942 
17:05	44.3	44.3	44.3	53	28.3	3	9	248	0.00	29.942 
17:10	44.3	44.3	44.3	54	28.7	2	7	248	0.00	29.942 
17:15	44.2	44.2	44.2	54	28.6	2	6	248	0.00	29.947 
17:20	44.1	44.1	44.1	54	28.5	2	5	248	0.00	29.947 
17:25	43.9	43.9	43.9	54	28.3	1	7	248	0.00	29.947 
17:30	43.8	43.8	43.8	55	28.7	1	4	248	0.00	29.947 
17:35	43.5	43.5	43.5	55	28.4	0	3	248	0.00	29.947 
17:40	43.3	43.3	43.3	56	28.7	0	2	248	0.00	29.947 
17:45	42.9	42.9	42.9	57	28.7	0	2	248	0.00	29.952 
17:50	42.8	42.8	42.8	57	28.6	0	2	248	0.00	29.952 
17:55	42.5	42.5	42.5	58	28.8	0	3	248	0.00	29.952 
18:00	42.2	42.2	42.2	58	28.5	0	1	248	0.00	29.952 
18:05	41.9	41.9	41.9	59	28.6	0	0	---	0.00	29.952 
18:10	41.5	41.5	41.5	59	28.3	0	1	248	0.00	29.952 
18:15	41.2	41.2	41.2	60	28.4	0	1	248	0.00	29.958 
18:20	40.9	40.9	40.9	61	28.5	0	1	248	0.00	29.958 
18:25	40.6	40.6	40.6	62	28.6	0	0	---	0.00	29.958 
18:30	40.2	40.2	40.2	63	28.6	0	1	248	0.00	29.962 
18:35	40.1	40.1	40.1	63	28.5	0	1	248	0.00	29.962 
18:40	39.9	39.9	39.9	64	28.7	0	0	---	0.00	29.962 
18:45	39.6	39.6	39.6	65	28.8	0	0	---	0.00	29.960 
18:50	39.5	39.5	39.5	65	28.7	0	0	---	0.00	29.960 
18:55	39.3	39.3	39.3	66	28.9	0	1	248	0.00	29.960 
19:00	39.2	39.2	39.2	66	28.8	0	0	---	0.00	29.958 
19:05	38.9	38.9	38.9	67	28.9	0	1	248	0.00	29.958 
19:10	38.8	38.8	38.8	68	29.2	0	1	248	0.00	29.958 
19:15	38.6	38.6	38.6	68	29.0	0	0	---	0.00	29.960 
19:20	38.3	38.3	38.3	68	28.7	0	0	---	0.00	29.960 
19:25	38.2	38.2	38.2	69	28.9	0	1	248	0.00	29.960 
19:30	38.2	38.2	38.2	69	28.9	0	1	248	0.00	29.964 
19:35	38.2	38.2	38.2	70	29.3	0	1	248	0.00	29.964 
19:40	38.3	38.3	38.3	70	29.4	0	1	248	0.00	29.964 
19:45	38.3	38.3	38.3	70	29.4	0	1	248	0.00	29.962 
19:50	38.5	38.5	38.5	69	29.2	0	1	248	0.00	29.962 
19:55	38.5	38.5	38.5	69	29.2	0	2	248	0.00	29.962 
20:00	38.5	38.5	38.5	69	29.2	0	1	248	0.00	29.960 
20:05	38.5	38.5	38.5	69	29.2	0	2	248	0.00	29.960 
20:10	38.5	38.5	38.5	69	29.2	0	2	248	0.00	29.960 
20:15	38.5	38.5	38.5	69	29.2	1	3	248	0.00	29.961 
20:20	38.5	38.5	38.5	69	29.2	0	2	248	0.00	29.961 
20:25	38.5	38.5	38.5	69	29.2	0	3	248	0.00	29.961 
20:30	38.5	38.5	38.5	69	29.2	0	2	248	0.00	29.956 
20:35	38.6	38.6	38.6	69	29.3	0	3	248	0.00	29.956 
20:40	38.6	38.6	38.6	68	29.0	0	3	248	0.00	29.956 
20:45	38.6	38.6	38.6	68	29.0	0	4	248	0.00	29.959 
20:50	38.6	38.6	38.6	68	29.0	0	3	248	0.00	29.959 
20:55	38.6	38.6	38.6	68	29.0	0	3	248	0.00	29.959 
21:00	38.6	38.6	38.6	68	29.0	0	3	248	0.00	29.961 
21:05	38.5	38.5	38.5	68	28.9	0	3	248	0.00	29.961 
21:10	38.5	38.5	38.5	68	28.9	0	3	248	0.00	29.961 
21:15	38.5	38.5	38.5	68	28.9	0	3	248	0.00	29.958 
21:20	38.5	38.5	38.5	68	28.9	1	3	248	0.00	29.958 
21:25	38.5	38.5	38.5	68	28.9	1	4	248	0.00	29.958 
21:30	38.6	38.6	38.6	67	28.6	0	5	248	0.00	29.957 
21:35	38.8	38.8	38.8	67	28.8	1	4	248	0.00	29.957 
21:40	38.8	38.8	38.8	66	28.4	1	4	248	0.00	29.957 
21:45	38.9	38.9	38.9	66	28.5	1	4	225	0.00	29.958 
21:50	39.1	39.1	39.1	65	28.3	1	4	248	0.00	29.958 
21:55	39.1	39.1	39.1	65	28.3	1	4	270	0.00	29.958 
22:00	39.2	39.2	39.2	64	28.1	1	6	225	0.00	29.963 
22:05	39.3	39.3	39.3	64	28.2	1	5	248	0.00	29.963 
22:10	39.3	39.3	39.3	64	28.2	1	4	248	0.00	29.963 
22:15	39.3	39.3	39.3	63	27.8	1	4	248	0.00	29.963 
22:20	39.3	39.3	39.3	63	27.8	1	3	248	0.00	29.963 
22:25	39.3	39.3	39.3	63	27.8	1	3	248	0.00	29.963 
22:30	39.3	39.3	39.3	63	27.8	1	4	248	0.00	29.958 
22:35	39.3	39.3	39.3	63	27.8	1	4	248	0.00	29.958 
22:40	39.3	39.3	39.3	63	27.8	1	4	248	0.00	29.958 
22:45	39.3	39.3	39.3	62	27.4	1	5	248	0.00	29.964 
22:50	39.5	39.5	39.5	62	27.6	1	7	248	0.00	29.964 
22:55	39.5	39.5	39.5	62	27.6	1	4	248	0.00	29.964 
23:00	39.5	39.5	39.5	62	27.6	1	5	225	0.00	29.964 
23:05	39.5	39.5	39.5	61	27.2	2	4	248	0.00	29.964 
23:10	39.6	39.6	39.6	61	27.3	1	3	248	0.00	29.964 
23:15	39.5	39.5	39.5	61	27.2	1	5	225	0.00	29.961 
23:20	39.5	39.5	39.5	61	27.2	2	6	248	0.00	29.961 
23:25	39.6	39.6	39.6	61	27.3	1	5	248	0.00	29.961 
23:30	39.6	39.6	39.6	61	27.3	1	5	248	0.00	29.962 
23:35	39.5	39.5	39.5	61	27.2	1	3	248	0.00	29.962 
23:40	39.5	39.5	39.5	61	27.2	2	6	248	0.00	29.962 
23:45	39.3	39.3	39.3	61	27.0	2	5	225	0.00	29.970 
23:50	39.3	39.3	39.3	61	27.0	2	5	248	0.00	29.970 
23:55	39.2	39.2	39.2	62	27.3	2	5	248	0.00	29.970 

CoCoRaHS
IN-AL-39
A2 Web Hosting
Creative Commons License
GoDaddy
search engine by freefind advanced

loaded 2018-11-20 14:22:53 • last modified 2010-11-18 10:43:29
Privacy PolicyDisclaimer
• wx.awcolley.com is powered by PmWiki v.2002016 •
• all content (unless otherwise noted) © 2018 A W Colley